Time;durP1;ratioP1;P1;durP2;ratioP2;P2;SDS_P1;SDS_P2;PMS_P1;PMS_P2;Temp;Humidity;BMP_temperature;BMP_pressure;BME280_temperature;BME280_humidity;BME280_pressure;Samples;Min_cycle;Max_cycle;Signal;HPM_P1;HPM_P2
2024/02/19 00:02:25;;;;;;;;;;;;;;;;;;5040039;28;19939;-70
2024/02/19 00:04:52;;;;;;;;;;;;;;;;;;5049031;28;20787;-70
2024/02/19 00:07:20;;;;;;;;;;;;;;;;;;5048237;28;19982;-70
2024/02/19 00:09:47;;;;;;;;;;;;;;;;;;5048449;28;19967;-70
2024/02/19 00:12:14;;;;;;;;;;;;;;;;;;5048124;28;19929;-69
2024/02/19 00:14:41;;;;;;;;;;;;;;;;;;5039399;28;19928;-71
2024/02/19 00:17:09;;;;;;;;;;;;;;;;;;5047914;28;20375;-70
2024/02/19 00:19:37;;;;;;;;;;;;;;;;;;5048493;28;19936;-69
2024/02/19 00:22:04;;;;;;;;;;;;;;;;;;5048002;28;19941;-70
2024/02/19 00:24:31;;;;;;;;;;;;;;;;;;5046543;28;20016;-70
2024/02/19 00:26:58;;;;;;;;;;;;;;;;;;5048567;28;20023;-70
2024/02/19 00:29:25;;;;;;;;;;;;;;;;;;5048579;28;20453;-70
2024/02/19 00:31:52;;;;;;;;;;;;;;;;;;5054536;28;19928;-70
2024/02/19 00:34:19;;;;;;;;;;;;;;;;;;5060816;28;19929;-70
2024/02/19 00:36:46;;;;;;;;;;;;;;;;;;5049428;28;19982;-69
2024/02/19 00:39:13;;;;;;;;;;;;;;;;;;5047505;28;19981;-71
2024/02/19 00:41:40;;;;;;;;;;;;;;;;;;5049419;28;19935;-70
2024/02/19 00:44:07;;;;;;;;;;;;;;;;;;5046594;28;19955;-70
2024/02/19 00:46:34;;;;;;;;;;;;;;;;;;5048943;28;20028;-70
2024/02/19 00:49:01;;;;;;;;;;;;;;;;;;5046630;28;20126;-71
2024/02/19 00:51:28;;;;;;;;;;;;;;;;;;5046014;28;19929;-70
2024/02/19 00:53:55;;;;;;;;;;;;;;;;;;5047811;28;19968;-70
2024/02/19 00:56:22;;;;;;;;;;;;;;;;;;5058559;28;19986;-71
2024/02/19 00:58:49;;;;;;;;;;;;;;;;;;5048294;28;20386;-70
2024/02/19 01:01:16;;;;;;;;;;;;;;;;;;5047775;28;19976;-70
2024/02/19 01:03:43;;;;;;;;;;;;;;;;;;5049196;28;20479;-70
2024/02/19 01:06:11;;;;;;;;;;;;;;;;;;5046995;28;20028;-70
2024/02/19 01:08:38;;;;;;;;;;;;;;;;;;5045380;28;19928;-71
2024/02/19 01:11:05;;;;;;;;;;;;;;;;;;5050928;28;19975;-70
2024/02/19 01:13:32;;;;;;;;;;;;;;;;;;5057739;28;20029;-70
2024/02/19 01:15:59;;;;;;;;;;;;;;;;;;5046740;28;19932;-70
2024/02/19 01:18:26;;;;;;;;;;;;;;;;;;5048101;28;19929;-71
2024/02/19 01:20:54;;;;;;;;;;;;;;;;;;5046380;28;19929;-70
2024/02/19 01:23:21;;;;;;;;;;;;;;;;;;5047145;28;19928;-71
2024/02/19 01:25:48;;;;;;;;;;;;;;;;;;5043819;28;20002;-70
2024/02/19 01:28:15;;;;;;;;;;;;;;;;;;5050691;28;19934;-71
2024/02/19 01:30:42;;;;;;;;;;;;;;;;;;5047287;28;19935;-71
2024/02/19 01:33:09;;;;;;;;;;;;;;;;;;5048283;28;19999;-71
2024/02/19 01:35:36;;;;;;;;;;;;;;;;;;5039771;28;19929;-70
2024/02/19 01:38:04;;;;;;;;;;;;;;;;;;5048964;28;19933;-70
2024/02/19 01:40:31;;;;;;;;;;;;;;;;;;5048544;28;20033;-70
2024/02/19 01:42:58;;;;;;;;;;;;;;;;;;5049548;28;20458;-70
2024/02/19 01:45:25;;;;;;;;;;;;;;;;;;5048929;28;19982;-70
2024/02/19 01:47:52;;;;;;;;;;;;;;;;;;5048814;28;20011;-70
2024/02/19 01:50:19;;;;;;;;;;;;;;;;;;5045552;28;19929;-70
2024/02/19 01:52:46;;;;;;;;;;;;;;;;;;5046500;28;19980;-70
2024/02/19 01:55:13;;;;;;;;;;;;;;;;;;5048060;28;20368;-70
2024/02/19 01:57:42;;;;;;;;;;;;;;;;;;5045299;28;20011;-70
2024/02/19 02:00:10;;;;;;;;;;;;;;;;;;5049469;28;19936;-70
2024/02/19 02:02:37;;;;;;;;;;;;;;;;;;5048207;28;19928;-70
2024/02/19 02:05:04;;;;;;;;;;;;;;;;;;5060214;28;20019;-70
2024/02/19 02:07:31;;;;;;;;;;;;;;;;;;5052720;28;19983;-71
2024/02/19 02:09:58;;;;;;;;;;;;;;;;;;5051688;28;20015;-71
2024/02/19 02:12:25;;;;;;;;;;;;;;;;;;5051005;28;20376;-71
2024/02/19 02:14:52;;;;;;;;;;;;;;;;;;5051267;28;19964;-71
2024/02/19 02:17:19;;;;;;;;;;;;;;;;;;5053440;28;19956;-71
2024/02/19 02:19:46;;;;;;;;;;;;;;;;;;5050965;28;20019;-71
2024/02/19 02:22:13;;;;;;;;;;;;;;;;;;5050040;28;19979;-72
2024/02/19 02:24:40;;;;;;;;;;;;;;;;;;5049334;28;20449;-70
2024/02/19 02:27:08;;;;;;;;;;;;;;;;;;5050450;28;20016;-72
2024/02/19 02:29:36;;;;;;;;;;;;;;;;;;5049567;28;19929;-71
2024/02/19 02:32:03;;;;;;;;;;;;;;;;;;5049007;28;19935;-71
2024/02/19 02:34:30;;;;;;;;;;;;;;;;;;5044836;28;19933;-71
2024/02/19 02:36:57;;;;;;;;;;;;;;;;;;5050609;28;19976;-70
2024/02/19 02:39:24;;;;;;;;;;;;;;;;;;5050725;28;19963;-71
2024/02/19 02:41:51;;;;;;;;;;;;;;;;;;5049582;28;20024;-71
2024/02/19 02:44:18;;;;;;;;;;;;;;;;;;5051285;28;19929;-71
2024/02/19 02:46:45;;;;;;;;;;;;;;;;;;5049758;28;19928;-71
2024/02/19 02:49:12;;;;;;;;;;;;;;;;;;5050394;28;19968;-72
2024/02/19 02:51:39;;;;;;;;;;;;;;;;;;5048908;28;20015;-71
2024/02/19 02:54:06;;;;;;;;;;;;;;;;;;5050486;28;20407;-73
2024/02/19 02:56:33;;;;;;;;;;;;;;;;;;5050487;28;19933;-71
2024/02/19 02:59:00;;;;;;;;;;;;;;;;;;5051159;28;19932;-72
2024/02/19 03:01:27;;;;;;;;;;;;;;;;;;5049511;28;19929;-71
2024/02/19 03:03:54;;;;;;;;;;;;;;;;;;5049505;28;20415;-71
2024/02/19 03:06:22;;;;;;;;;;;;;;;;;;5049283;28;20054;-72
2024/02/19 03:08:49;;;;;;;;;;;;;;;;;;5049670;28;19933;-72
2024/02/19 03:11:16;;;;;;;;;;;;;;;;;;5049730;28;19928;-72
2024/02/19 03:13:43;;;;;;;;;;;;;;;;;;5048968;28;19935;-71
2024/02/19 03:16:10;;;;;;;;;;;;;;;;;;5049858;28;20307;-71
2024/02/19 03:18:37;;;;;;;;;;;;;;;;;;5047263;28;20056;-72
2024/02/19 03:21:07;;;;;;;;;;;;;;;;;;5050553;28;20400;-71
2024/02/19 03:23:34;;;;;;;;;;;;;;;;;;5050010;28;19928;-71
2024/02/19 03:26:01;;;;;;;;;;;;;;;;;;5038432;28;19935;-72
2024/02/19 03:28:28;;;;;;;;;;;;;;;;;;5060297;28;19975;-71
2024/02/19 03:30:56;;;;;;;;;;;;;;;;;;5051129;28;20399;-72
2024/02/19 03:33:23;;;;;;;;;;;;;;;;;;5042240;28;20311;-72
2024/02/19 03:35:50;;;;;;;;;;;;;;;;;;5044378;28;19928;-71
2024/02/19 03:38:17;;;;;;;;;;;;;;;;;;5046810;28;19928;-71
2024/02/19 03:40:44;;;;;;;;;;;;;;;;;;5054647;28;19975;-71
2024/02/19 03:43:11;;;;;;;;;;;;;;;;;;5047066;28;19929;-71
2024/02/19 03:45:38;;;;;;;;;;;;;;;;;;5050628;28;19935;-72
2024/02/19 03:48:05;;;;;;;;;;;;;;;;;;5048353;28;19936;-71
2024/02/19 03:50:32;;;;;;;;;;;;;;;;;;5030270;28;19932;-71
2024/02/19 03:52:59;;;;;;;;;;;;;;;;;;5050338;28;20274;-72
2024/02/19 03:55:26;;;;;;;;;;;;;;;;;;5047984;28;20011;-72
2024/02/19 03:57:53;;;;;;;;;;;;;;;;;;5048412;28;20043;-71
2024/02/19 04:00:20;;;;;;;;;;;;;;;;;;5048330;28;19929;-72
2024/02/19 04:02:47;;;;;;;;;;;;;;;;;;5049217;28;19935;-71
2024/02/19 04:05:14;;;;;;;;;;;;;;;;;;5045803;28;19933;-71
2024/02/19 04:07:41;;;;;;;;;;;;;;;;;;5049463;28;20447;-71
2024/02/19 04:10:08;;;;;;;;;;;;;;;;;;5052305;28;20001;-71
2024/02/19 04:12:35;;;;;;;;;;;;;;;;;;5048070;28;20024;-72
2024/02/19 04:15:02;;;;;;;;;;;;;;;;;;5047177;28;19929;-71
2024/02/19 04:17:31;;;;;;;;;;;;;;;;;;5050599;28;19933;-71
2024/02/19 04:19:58;;;;;;;;;;;;;;;;;;5048484;28;19990;-71
2024/02/19 04:22:25;;;;;;;;;;;;;;;;;;5047640;28;19968;-71
2024/02/19 04:24:54;;;;;;;;;;;;;;;;;;5047854;28;20217;-71
2024/02/19 04:27:21;;;;;;;;;;;;;;;;;;5046382;28;19976;-72
2024/02/19 04:29:48;;;;;;;;;;;;;;;;;;5048271;28;19972;-71
2024/02/19 04:32:15;;;;;;;;;;;;;;;;;;5048286;28;19974;-71
2024/02/19 04:34:42;;;;;;;;;;;;;;;;;;5048563;28;20307;-71
2024/02/19 04:37:09;;;;;;;;;;;;;;;;;;5047486;28;19968;-71
2024/02/19 04:39:36;;;;;;;;;;;;;;;;;;5055648;28;20288;-72
2024/02/19 04:42:03;;;;;;;;;;;;;;;;;;5051549;28;19990;-70
2024/02/19 04:44:30;;;;;;;;;;;;;;;;;;5048956;28;19990;-71
2024/02/19 04:46:57;;;;;;;;;;;;;;;;;;5046789;28;20019;-71
2024/02/19 04:49:24;;;;;;;;;;;;;;;;;;5045016;28;19936;-71
2024/02/19 04:51:51;;;;;;;;;;;;;;;;;;5045942;28;20027;-71
2024/02/19 04:54:18;;;;;;;;;;;;;;;;;;5048953;28;20003;-70
2024/02/19 04:56:45;;;;;;;;;;;;;;;;;;5045523;28;19933;-71
2024/02/19 04:59:12;;;;;;;;;;;;;;;;;;5048810;28;19972;-72
2024/02/19 05:01:39;;;;;;;;;;;;;;;;;;5046382;28;20450;-70
2024/02/19 05:04:06;;;;;;;;;;;;;;;;;;5047467;28;19929;-70
2024/02/19 05:06:34;;;;;;;;;;;;;;;;;;5046250;28;20398;-72
2024/02/19 05:09:01;;;;;;;;;;;;;;;;;;5048912;28;19928;-73
2024/02/19 05:11:28;;;;;;;;;;;;;;;;;;5055063;28;20031;-72
2024/02/19 05:13:55;;;;;;;;;;;;;;;;;;5047941;28;19933;-72
2024/02/19 05:16:22;;;;;;;;;;;;;;;;;;5047192;28;19928;-72
2024/02/19 05:18:49;;;;;;;;;;;;;;;;;;5047050;28;20471;-72
2024/02/19 05:21:16;;;;;;;;;;;;;;;;;;5047997;28;20018;-72
2024/02/19 05:23:43;;;;;;;;;;;;;;;;;;5047027;28;20027;-70
2024/02/19 05:26:10;;;;;;;;;;;;;;;;;;5047347;28;20295;-71
2024/02/19 05:28:37;;;;;;;;;;;;;;;;;;5045144;28;20462;-72
2024/02/19 05:31:05;;;;;;;;;;;;;;;;;;5046279;28;20015;-71
2024/02/19 05:33:32;;;;;;;;;;;;;;;;;;5048795;28;20395;-71
2024/02/19 05:35:59;;;;;;;;;;;;;;;;;;5047760;28;20011;-72
2024/02/19 05:38:26;;;;;;;;;;;;;;;;;;5043565;28;20391;-72
2024/02/19 05:40:53;;;;;;;;;;;;;;;;;;5050754;28;19932;-73
2024/02/19 05:43:20;;;;;;;;;;;;;;;;;;5052355;28;19935;-72
2024/02/19 05:45:47;;;;;;;;;;;;;;;;;;5050818;28;20013;-72
2024/02/19 05:48:14;;;;;;;;;;;;;;;;;;5049574;28;19986;-72
2024/02/19 05:50:41;;;;;;;;;;;;;;;;;;5050511;28;20295;-72
2024/02/19 05:53:08;;;;;;;;;;;;;;;;;;5051775;28;20463;-72
2024/02/19 05:55:35;;;;;;;;;;;;;;;;;;5050729;28;19967;-72
2024/02/19 05:58:02;;;;;;;;;;;;;;;;;;5050499;28;20008;-72
2024/02/19 06:00:29;;;;;;;;;;;;;;;;;;5050134;28;20016;-72
2024/02/19 06:03:03;;;;;;;;;;;;;;;;;;5051115;28;19939;-72
2024/02/19 06:05:30;;;;;;;;;;;;;;;;;;5049847;28;20011;-72
2024/02/19 06:07:57;;;;;;;;;;;;;;;;;;5049761;28;19933;-71
2024/02/19 06:10:24;;;;;;;;;;;;;;;;;;5051510;28;20174;-72
2024/02/19 06:12:52;;;;;;;;;;;;;;;;;;5050793;28;19925;-72
2024/02/19 06:15:19;;;;;;;;;;;;;;;;;;5050761;28;19936;-73
2024/02/19 06:17:46;;;;;;;;;;;;;;;;;;5051206;28;20447;-72
2024/02/19 06:20:13;;;;;;;;;;;;;;;;;;5052085;28;19929;-72
2024/02/19 06:22:40;;;;;;;;;;;;;;;;;;5050923;28;19928;-72
2024/02/19 06:25:07;;;;;;;;;;;;;;;;;;5051285;28;20565;-72
2024/02/19 06:27:34;;;;;;;;;;;;;;;;;;5050610;28;19928;-72
2024/02/19 06:30:01;;;;;;;;;;;;;;;;;;5049442;28;20471;-72
2024/02/19 06:32:28;;;;;;;;;;;;;;;;;;5046963;28;19932;-72
2024/02/19 06:34:55;;;;;;;;;;;;;;;;;;5056546;28;20012;-73
2024/02/19 06:37:22;;;;;;;;;;;;;;;;;;5048752;28;20320;-71
2024/02/19 06:39:49;;;;;;;;;;;;;;;;;;5056734;28;19935;-72
2024/02/19 06:42:19;;;;;;;;;;;;;;;;;;5048394;28;19929;-71
2024/02/19 06:44:46;;;;;;;;;;;;;;;;;;5052392;28;19945;-72
2024/02/19 06:47:13;;;;;;;;;;;;;;;;;;5044775;28;20019;-72
2024/02/19 06:49:40;;;;;;;;;;;;;;;;;;5032299;28;19930;-72
2024/02/19 06:52:07;;;;;;;;;;;;;;;;;;5049730;28;19960;-70
2024/02/19 06:54:34;;;;;;;;;;;;;;;;;;5046716;28;19937;-71
2024/02/19 06:57:02;;;;;;;;;;;;;;;;;;5049821;28;19987;-72
2024/02/19 06:59:30;;;;;;;;;;;;;;;;;;5048226;28;19970;-72
2024/02/19 07:01:57;;;;;;;;;;;;;;;;;;5049378;28;19928;-72
2024/02/19 07:04:24;;;;;;;;;;;;;;;;;;5049369;28;19928;-72
2024/02/19 07:06:52;;;;;;;;;;;;;;;;;;5044273;28;19935;-70
2024/02/19 07:09:19;;;;;;;;;;;;;;;;;;5050156;28;20388;-72
2024/02/19 07:11:46;;;;;;;;;;;;;;;;;;5050045;28;20346;-71
2024/02/19 07:14:13;;;;;;;;;;;;;;;;;;5048782;28;20015;-73
2024/02/19 07:16:40;;;;;;;;;;;;;;;;;;5048520;28;20036;-72
2024/02/19 07:19:08;;;;;;;;;;;;;;;;;;5039918;28;19935;-72
2024/02/19 07:21:35;;;;;;;;;;;;;;;;;;5040208;28;19940;-72
2024/02/19 07:24:02;;;;;;;;;;;;;;;;;;5036752;28;20374;-74
2024/02/19 07:26:29;;;;;;;;;;;;;;;;;;5051914;28;19929;-72
2024/02/19 07:28:56;;;;;;;;;;;;;;;;;;5043067;28;20003;-72
2024/02/19 07:31:23;;;;;;;;;;;;;;;;;;5052758;28;19928;-72
2024/02/19 07:33:50;;;;;;;;;;;;;;;;;;5050067;28;20015;-73
2024/02/19 07:36:17;;;;;;;;;;;;;;;;;;5050076;28;20457;-72
2024/02/19 07:38:44;;;;;;;;;;;;;;;;;;5045127;28;20014;-72
2024/02/19 07:41:11;;;;;;;;;;;;;;;;;;5046162;28;20387;-72
2024/02/19 07:43:38;;;;;;;;;;;;;;;;;;5050721;28;19982;-72
2024/02/19 07:46:05;;;;;;;;;;;;;;;;;;5049501;28;19939;-73
2024/02/19 07:48:33;;;;;;;;;;;;;;;;;;5038135;28;19935;-73
2024/02/19 07:51:00;;;;;;;;;;;;;;;;;;5050147;28;20695;-72
2024/02/19 07:53:27;;;;;;;;;;;;;;;;;;5045756;28;19929;-72
2024/02/19 07:55:54;;;;;;;;;;;;;;;;;;5046903;28;19929;-72
2024/02/19 07:58:21;;;;;;;;;;;;;;;;;;5049083;28;19983;-72
2024/02/19 08:00:48;;;;;;;;;;;;;;;;;;5037922;28;20024;-72
2024/02/19 08:03:15;;;;;;;;;;;;;;;;;;5043452;28;19939;-72
2024/02/19 08:05:42;;;;;;;;;;;;;;;;;;5042882;28;19929;-72
2024/02/19 08:08:09;;;;;;;;;;;;;;;;;;5041818;28;19932;-72
2024/02/19 08:10:37;;;;;;;;;;;;;;;;;;5044506;28;20119;-72
2024/02/19 08:13:04;;;;;;;;;;;;;;;;;;5040798;28;20044;-71
2024/02/19 08:15:31;;;;;;;;;;;;;;;;;;5044196;28;19929;-70
2024/02/19 08:17:58;;;;;;;;;;;;;;;;;;5042245;28;19954;-72
2024/02/19 08:20:25;;;;;;;;;;;;;;;;;;5046133;28;19929;-71
2024/02/19 08:22:52;;;;;;;;;;;;;;;;;;5049751;28;20739;-72
2024/02/19 08:25:19;;;;;;;;;;;;;;;;;;5049640;28;19947;-71
2024/02/19 08:27:47;;;;;;;;;;;;;;;;;;5047398;28;20027;-72
2024/02/19 08:30:14;;;;;;;;;;;;;;;;;;5044570;28;20371;-72
2024/02/19 08:32:41;;;;;;;;;;;;;;;;;;5039610;28;19952;-72
2024/02/19 08:35:08;;;;;;;;;;;;;;;;;;5046189;28;19935;-72
2024/02/19 08:37:35;;;;;;;;;;;;;;;;;;5041981;28;20341;-72
2024/02/19 08:40:02;;;;;;;;;;;;;;;;;;5037026;28;19929;-72
2024/02/19 08:42:29;;;;;;;;;;;;;;;;;;5047680;28;19928;-71
2024/02/19 08:44:56;;;;;;;;;;;;;;;;;;5043294;28;20440;-72
2024/02/19 08:47:23;;;;;;;;;;;;;;;;;;5036804;28;20023;-72
2024/02/19 08:49:50;;;;;;;;;;;;;;;;;;5046509;28;19933;-72
2024/02/19 08:52:17;;;;;;;;;;;;;;;;;;5041623;28;19959;-71
2024/02/19 08:54:44;;;;;;;;;;;;;;;;;;5045876;28;20023;-72
2024/02/19 08:57:11;;;;;;;;;;;;;;;;;;5044236;28;20299;-75
2024/02/19 08:59:44;;;;;;;;;;;;;;;;;;5042468;28;19929;-72
2024/02/19 09:02:11;;;;;;;;;;;;;;;;;;5036310;28;19929;-72
2024/02/19 09:04:39;;;;;;;;;;;;;;;;;;5040705;28;19929;-70
2024/02/19 09:07:06;;;;;;;;;;;;;;;;;;5048169;28;20405;-72
2024/02/19 09:09:33;;;;;;;;;;;;;;;;;;5042103;28;19975;-71
2024/02/19 09:12:00;;;;;;;;;;;;;;;;;;5044940;28;19929;-71
2024/02/19 09:14:28;;;;;;;;;;;;;;;;;;5038246;28;19935;-71
2024/02/19 09:16:55;;;;;;;;;;;;;;;;;;5043359;28;19929;-71
2024/02/19 09:19:22;;;;;;;;;;;;;;;;;;5037536;28;20015;-74
2024/02/19 09:21:49;;;;;;;;;;;;;;;;;;5034756;28;19929;-73
2024/02/19 09:24:16;;;;;;;;;;;;;;;;;;5041042;28;20307;-74
2024/02/19 09:26:43;;;;;;;;;;;;;;;;;;5048049;28;19928;-75
2024/02/19 09:29:10;;;;;;;;;;;;;;;;;;5043093;28;20391;-72
2024/02/19 09:31:37;;;;;;;;;;;;;;;;;;5043803;28;20027;-71
2024/02/19 09:34:04;;;;;;;;;;;;;;;;;;5033597;28;20028;-71
2024/02/19 09:36:31;;;;;;;;;;;;;;;;;;5047507;28;20368;-71
2024/02/19 09:38:58;;;;;;;;;;;;;;;;;;5045959;28;19939;-73
2024/02/19 09:41:25;;;;;;;;;;;;;;;;;;5045503;28;19933;-74
2024/02/19 09:43:52;;;;;;;;;;;;;;;;;;5045388;28;20027;-71
2024/02/19 09:46:22;;;;;;;;;;;;;;;;;;5046003;28;20012;-71
2024/02/19 09:48:49;;;;;;;;;;;;;;;;;;5046239;28;20326;-72
2024/02/19 09:51:16;;;;;;;;;;;;;;;;;;5037096;28;19929;-73
2024/02/19 09:53:43;;;;;;;;;;;;;;;;;;5041788;28;20375;-73
2024/02/19 09:56:13;;;;;;;;;;;;;;;;;;5042979;28;20031;-74
2024/02/19 09:58:40;;;;;;;;;;;;;;;;;;5045400;28;19928;-73
2024/02/19 10:01:07;;;;;;;;;;;;;;;;;;5035678;28;19936;-72
2024/02/19 10:03:34;;;;;;;;;;;;;;;;;;5043940;28;19943;-73
2024/02/19 10:06:02;;;;;;;;;;;;;;;;;;5039866;28;19975;-73
2024/02/19 10:08:29;;;;;;;;;;;;;;;;;;5042249;28;20461;-74
2024/02/19 10:10:57;;;;;;;;;;;;;;;;;;5044468;28;19986;-73
2024/02/19 10:13:24;;;;;;;;;;;;;;;;;;5038195;28;19944;-73
2024/02/19 10:15:51;;;;;;;;;;;;;;;;;;5037948;28;19980;-73
2024/02/19 10:18:18;;;;;;;;;;;;;;;;;;5041676;28;20035;-73
2024/02/19 10:20:46;;;;;;;;;;;;;;;;;;5043481;28;19951;-73
2024/02/19 10:23:13;;;;;;;;;;;;;;;;;;5040209;28;19935;-76
2024/02/19 10:25:40;;;;;;;;;;;;;;;;;;5044595;28;19928;-73
2024/02/19 10:28:07;;;;;;;;;;;;;;;;;;5047035;28;19944;-72
2024/02/19 10:30:34;;;;;;;;;;;;;;;;;;5047152;28;19928;-78
2024/02/19 10:33:01;;;;;;;;;;;;;;;;;;5044079;28;20362;-74
2024/02/19 10:35:30;;;;;;;;;;;;;;;;;;5047451;28;20417;-72
2024/02/19 10:37:59;;;;;;;;;;;;;;;;;;5044614;28;20284;-70
2024/02/19 10:40:26;;;;;;;;;;;;;;;;;;5047344;28;19936;-73
2024/02/19 10:42:53;;;;;;;;;;;;;;;;;;5038447;28;19936;-73
2024/02/19 10:45:21;;;;;;;;;;;;;;;;;;5041926;28;20370;-73
2024/02/19 10:47:48;;;;;;;;;;;;;;;;;;5046618;28;19933;-73
2024/02/19 10:50:17;;;;;;;;;;;;;;;;;;5048008;28;20020;-73
2024/02/19 10:52:44;;;;;;;;;;;;;;;;;;5045516;28;19928;-73
2024/02/19 10:55:11;;;;;;;;;;;;;;;;;;5051325;28;20015;-73
2024/02/19 10:57:38;;;;;;;;;;;;;;;;;;5048959;28;20020;-74
2024/02/19 11:00:06;;;;;;;;;;;;;;;;;;5045698;28;19929;-73
2024/02/19 11:02:33;;;;;;;;;;;;;;;;;;5043315;28;20383;-73
2024/02/19 11:05:00;;;;;;;;;;;;;;;;;;5043354;28;19983;-74
2024/02/19 11:07:27;;;;;;;;;;;;;;;;;;5047455;28;20371;-74
2024/02/19 11:09:57;;;;;;;;;;;;;;;;;;5050108;28;19935;-74
2024/02/19 11:12:25;;;;;;;;;;;;;;;;;;5048859;28;19933;-73
2024/02/19 11:14:53;;;;;;;;;;;;;;;;;;5042960;28;19928;-76
2024/02/19 11:17:19;;;;;;;;;;;;;;;;;;5047559;28;20020;-75
2024/02/19 11:19:47;;;;;;;;;;;;;;;;;;5048908;28;20556;-74
2024/02/19 11:22:19;;;;;;;;;;;;;;;;;;5045574;28;20019;-74
2024/02/19 11:24:46;;;;;;;;;;;;;;;;;;5040961;28;19929;-73
2024/02/19 11:27:13;;;;;;;;;;;;;;;;;;5044952;28;19939;-74
2024/02/19 11:29:40;;;;;;;;;;;;;;;;;;5048613;28;20368;-73
2024/02/19 11:32:07;;;;;;;;;;;;;;;;;;5048519;28;19929;-72
2024/02/19 11:34:34;;;;;;;;;;;;;;;;;;5049197;28;19982;-72
2024/02/19 11:37:02;;;;;;;;;;;;;;;;;;5046929;28;20304;-75
2024/02/19 11:39:29;;;;;;;;;;;;;;;;;;5041932;28;20376;-71
2024/02/19 11:41:56;;;;;;;;;;;;;;;;;;5044783;28;19935;-73
2024/02/19 11:44:23;;;;;;;;;;;;;;;;;;5049283;28;19979;-74
2024/02/19 11:46:50;;;;;;;;;;;;;;;;;;5048112;28;20367;-74
2024/02/19 11:49:19;;;;;;;;;;;;;;;;;;5045114;28;20016;-73
2024/02/19 11:51:46;;;;;;;;;;;;;;;;;;5049589;28;19935;-73
2024/02/19 11:54:15;;;;;;;;;;;;;;;;;;5042045;28;20470;-73
2024/02/19 11:56:42;;;;;;;;;;;;;;;;;;5046199;28;19935;-74
2024/02/19 11:59:10;;;;;;;;;;;;;;;;;;5044664;28;20451;-74
2024/02/19 12:01:37;;;;;;;;;;;;;;;;;;5044165;28;20402;-74
2024/02/19 12:04:04;;;;;;;;;;;;;;;;;;5047609;28;20027;-74
2024/02/19 12:06:31;;;;;;;;;;;;;;;;;;5046279;28;19929;-73
2024/02/19 12:08:58;;;;;;;;;;;;;;;;;;5040202;28;19943;-73
2024/02/19 12:11:25;;;;;;;;;;;;;;;;;;5047325;28;20299;-75
2024/02/19 12:13:52;;;;;;;;;;;;;;;;;;5037352;28;19967;-74
2024/02/19 12:16:20;;;;;;;;;;;;;;;;;;5038865;28;19968;-73
2024/02/19 12:18:47;;;;;;;;;;;;;;;;;;5047555;28;19939;-74
2024/02/19 12:21:14;;;;;;;;;;;;;;;;;;5044079;28;19929;-74
2024/02/19 12:23:42;;;;;;;;;;;;;;;;;;5045019;28;19929;-73
2024/02/19 12:26:10;;;;;;;;;;;;;;;;;;5039963;28;20327;-72
2024/02/19 12:28:37;;;;;;;;;;;;;;;;;;5040125;28;20425;-73
2024/02/19 12:31:04;;;;;;;;;;;;;;;;;;5039812;28;19955;-71
2024/02/19 12:33:32;;;;;;;;;;;;;;;;;;5037880;28;20028;-72
2024/02/19 12:35:59;;;;;;;;;;;;;;;;;;5045157;28;20384;-73
2024/02/19 12:38:26;;;;;;;;;;;;;;;;;;5048799;28;19979;-72
2024/02/19 12:40:53;;;;;;;;;;;;;;;;;;5044685;28;20358;-72
2024/02/19 12:43:20;;;;;;;;;;;;;;;;;;5047437;28;19933;-73
2024/02/19 12:45:47;;;;;;;;;;;;;;;;;;5038714;28;20357;-73
2024/02/19 12:48:14;;;;;;;;;;;;;;;;;;5049291;28;19972;-72
2024/02/19 12:50:41;;;;;;;;;;;;;;;;;;5043880;28;20402;-72
2024/02/19 12:53:08;;;;;;;;;;;;;;;;;;5043395;28;19987;-72
2024/02/19 12:55:35;;;;;;;;;;;;;;;;;;5044665;28;19928;-73
2024/02/19 12:58:02;;;;;;;;;;;;;;;;;;5048538;28;20400;-73
2024/02/19 13:00:29;;;;;;;;;;;;;;;;;;5058727;28;20036;-73
2024/02/19 13:02:57;;;;;;;;;;;;;;;;;;5041681;28;19928;-73
2024/02/19 13:05:24;;;;;;;;;;;;;;;;;;5045543;28;20030;-73
2024/02/19 13:07:51;;;;;;;;;;;;;;;;;;5044905;28;20388;-72
2024/02/19 13:10:18;;;;;;;;;;;;;;;;;;5048015;28;20273;-72
2024/02/19 13:12:45;;;;;;;;;;;;;;;;;;5044647;28;19932;-72
2024/02/19 13:15:12;;;;;;;;;;;;;;;;;;5038133;28;20446;-72
2024/02/19 13:17:39;;;;;;;;;;;;;;;;;;5039296;28;19982;-73
2024/02/19 13:20:09;;;;;;;;;;;;;;;;;;5044286;28;19928;-72
2024/02/19 13:22:36;;;;;;;;;;;;;;;;;;5030607;28;19929;-72
2024/02/19 13:25:03;;;;;;;;;;;;;;;;;;5040924;28;20019;-72
2024/02/19 13:27:30;;;;;;;;;;;;;;;;;;5045031;28;19994;-72
2024/02/19 13:29:57;;;;;;;;;;;;;;;;;;5047701;28;19978;-71
2024/02/19 13:32:24;;;;;;;;;;;;;;;;;;5041379;28;19979;-71
2024/02/19 13:34:52;;;;;;;;;;;;;;;;;;5033536;28;19935;-72
2024/02/19 13:37:20;;;;;;;;;;;;;;;;;;5048738;28;19933;-72
2024/02/19 13:39:47;;;;;;;;;;;;;;;;;;5044801;28;19929;-73
2024/02/19 13:42:14;;;;;;;;;;;;;;;;;;5043688;28;20027;-68
2024/02/19 13:44:41;;;;;;;;;;;;;;;;;;5044832;28;20019;-67
2024/02/19 13:47:08;;;;;;;;;;;;;;;;;;5043827;28;19929;-68
2024/02/19 13:49:35;;;;;;;;;;;;;;;;;;5049067;28;19932;-68
2024/02/19 13:52:04;;;;;;;;;;;;;;;;;;5041134;28;19938;-68
2024/02/19 13:54:31;;;;;;;;;;;;;;;;;;5046134;28;19995;-68
2024/02/19 13:57:02;;;;;;;;;;;;;;;;;;5037274;28;19975;-68
2024/02/19 13:59:30;;;;;;;;;;;;;;;;;;5036166;28;19929;-67
2024/02/19 14:01:57;;;;;;;;;;;;;;;;;;5041862;28;19933;-67
2024/02/19 14:04:24;;;;;;;;;;;;;;;;;;5045226;28;20019;-67
2024/02/19 14:06:51;;;;;;;;;;;;;;;;;;5041711;28;19964;-68
2024/02/19 14:09:18;;;;;;;;;;;;;;;;;;5038979;28;19947;-67
2024/02/19 14:11:45;;;;;;;;;;;;;;;;;;5047472;28;19928;-70
2024/02/19 14:14:12;;;;;;;;;;;;;;;;;;5047633;28;19968;-69
2024/02/19 14:16:39;;;;;;;;;;;;;;;;;;5034416;28;20384;-67
2024/02/19 14:19:06;;;;;;;;;;;;;;;;;;5042383;28;19998;-69
2024/02/19 14:21:35;;;;;;;;;;;;;;;;;;5043963;28;19983;-69
2024/02/19 14:24:02;;;;;;;;;;;;;;;;;;5047306;28;19929;-69
2024/02/19 14:26:29;;;;;;;;;;;;;;;;;;5052397;28;20070;-72
2024/02/19 14:28:56;;;;;;;;;;;;;;;;;;5049737;28;20467;-72
2024/02/19 14:31:23;;;;;;;;;;;;;;;;;;5051631;28;20023;-73
2024/02/19 14:33:50;;;;;;;;;;;;;;;;;;5041089;28;20055;-71
2024/02/19 14:36:17;;;;;;;;;;;;;;;;;;5045362;28;19942;-71
2024/02/19 14:38:44;;;;;;;;;;;;;;;;;;5049038;28;20328;-72
2024/02/19 14:41:13;;;;;;;;;;;;;;;;;;5050071;28;20031;-73
2024/02/19 14:43:40;;;;;;;;;;;;;;;;;;5040201;28;20028;-72
2024/02/19 14:46:07;;;;;;;;;;;;;;;;;;5034127;28;19936;-72
2024/02/19 14:48:34;;;;;;;;;;;;;;;;;;5035021;28;19929;-71
2024/02/19 14:51:01;;;;;;;;;;;;;;;;;;5044746;28;20395;-72
2024/02/19 14:53:29;;;;;;;;;;;;;;;;;;5043227;28;20011;-72
2024/02/19 14:55:56;;;;;;;;;;;;;;;;;;5043192;28;19971;-72
2024/02/19 14:58:24;;;;;;;;;;;;;;;;;;5038913;28;20420;-71
2024/02/19 15:00:51;;;;;;;;;;;;;;;;;;5038225;28;19940;-72
2024/02/19 15:03:18;;;;;;;;;;;;;;;;;;5039672;28;20264;-72
2024/02/19 15:05:45;;;;;;;;;;;;;;;;;;5048040;28;20012;-71
2024/02/19 15:08:15;;;;;;;;;;;;;;;;;;5041433;28;19933;-71
2024/02/19 15:10:43;;;;;;;;;;;;;;;;;;5038264;28;20004;-72
2024/02/19 15:13:10;;;;;;;;;;;;;;;;;;5038990;28;19929;-72
2024/02/19 15:15:37;;;;;;;;;;;;;;;;;;5043068;28;19947;-73
2024/02/19 15:18:04;;;;;;;;;;;;;;;;;;5045543;28;20305;-73
2024/02/19 15:20:31;;;;;;;;;;;;;;;;;;5043856;28;19932;-71
2024/02/19 15:22:58;;;;;;;;;;;;;;;;;;5043090;28;19929;-72
2024/02/19 15:25:25;;;;;;;;;;;;;;;;;;5036351;28;20344;-73
2024/02/19 15:27:52;;;;;;;;;;;;;;;;;;5032914;28;20027;-72
2024/02/19 15:30:19;;;;;;;;;;;;;;;;;;5042867;28;19935;-71
2024/02/19 15:32:47;;;;;;;;;;;;;;;;;;5032875;28;19928;-71
2024/02/19 15:35:14;;;;;;;;;;;;;;;;;;5040569;28;19940;-74
2024/02/19 15:37:41;;;;;;;;;;;;;;;;;;5047858;28;20027;-73
2024/02/19 15:40:09;;;;;;;;;;;;;;;;;;5046937;28;20006;-71
2024/02/19 15:42:37;;;;;;;;;;;;;;;;;;5038115;28;19935;-72
2024/02/19 15:45:04;;;;;;;;;;;;;;;;;;5034859;28;20408;-71
2024/02/19 15:47:31;;;;;;;;;;;;;;;;;;5048934;28;20096;-72
2024/02/19 15:49:59;;;;;;;;;;;;;;;;;;5047800;28;19928;-73
2024/02/19 15:52:26;;;;;;;;;;;;;;;;;;5046768;28;19929;-72
2024/02/19 15:54:53;;;;;;;;;;;;;;;;;;5048510;28;20061;-75
2024/02/19 15:57:21;;;;;;;;;;;;;;;;;;5050028;28;20016;-76
2024/02/19 15:59:48;;;;;;;;;;;;;;;;;;5038237;28;20806;-75
2024/02/19 16:02:15;;;;;;;;;;;;;;;;;;5048928;28;19929;-72
2024/02/19 16:04:42;;;;;;;;;;;;;;;;;;5049726;28;19935;-72
2024/02/19 16:07:09;;;;;;;;;;;;;;;;;;5043248;28;19929;-73
2024/02/19 16:09:36;;;;;;;;;;;;;;;;;;5040736;28;19995;-73
2024/02/19 16:12:03;;;;;;;;;;;;;;;;;;5046122;28;19936;-71
2024/02/19 16:14:30;;;;;;;;;;;;;;;;;;5049108;28;20019;-72
2024/02/19 16:16:57;;;;;;;;;;;;;;;;;;5048118;28;20011;-73
2024/02/19 16:19:24;;;;;;;;;;;;;;;;;;5048588;28;19928;-72
2024/02/19 16:21:51;;;;;;;;;;;;;;;;;;5039937;28;19933;-73
2024/02/19 16:24:18;;;;;;;;;;;;;;;;;;5041837;28;20375;-74
2024/02/19 16:26:45;;;;;;;;;;;;;;;;;;5041599;28;19964;-72
2024/02/19 16:29:13;;;;;;;;;;;;;;;;;;5047444;28;19933;-72
2024/02/19 16:31:40;;;;;;;;;;;;;;;;;;5048103;28;19928;-72
2024/02/19 16:34:07;;;;;;;;;;;;;;;;;;5042089;28;20300;-72
2024/02/19 16:36:34;;;;;;;;;;;;;;;;;;5040554;28;19935;-72
2024/02/19 16:39:01;;;;;;;;;;;;;;;;;;5045593;28;20387;-71
2024/02/19 16:41:28;;;;;;;;;;;;;;;;;;5043394;28;19929;-72
2024/02/19 16:43:55;;;;;;;;;;;;;;;;;;5040885;28;19928;-72
2024/02/19 16:46:23;;;;;;;;;;;;;;;;;;5042525;28;19984;-71